Time;durP1;ratioP1;P1;durP2;ratioP2;P2;SDS_P1;SDS_P2;PMS_P1;PMS_P2;Temp;Humidity;BMP_temperature;BMP_pressure;BME280_temperature;BME280_humidity;BME280_pressure;Samples;Min_cycle;Max_cycle;Signal;HPM_P1;HPM_P2
2021/09/27 00:00:31;;;;;;;15.63;14.02;;;;;;;17.45;84.00;99998.75;1085541;54;20038;-78
2021/09/27 00:01:35;;;;;;;16.05;13.95;;;;;;;17.45;84.21;100006.06;1085720;46;20038;-78
2021/09/27 00:02:37;;;;;;;19.55;16.83;;;;;;;17.38;84.42;100002.44;1085680;54;20058;-79
2021/09/27 00:03:45;;;;;;;21.25;16.92;;;;;;;17.28;84.41;99998.19;1085537;54;20065;-78
2021/09/27 00:04:47;;;;;;;18.00;16.10;;;;;;;17.27;84.50;100001.91;1085624;54;20038;-78
2021/09/27 00:05:51;;;;;;;18.08;16.08;;;;;;;17.18;84.78;100000.34;1085647;54;20102;-78
2021/09/27 00:06:53;;;;;;;20.65;17.10;;;;;;;17.19;84.70;100003.88;1085745;54;20061;-78
2021/09/27 00:07:58;;;;;;;20.48;16.27;;;;;;;17.22;84.82;100009.72;1085689;54;20079;-78
2021/09/27 00:09:02;;;;;;;18.45;15.90;;;;;;;17.23;84.50;100000.59;1085730;54;20034;-78
2021/09/27 00:10:05;;;;;;;21.92;16.55;;;;;;;17.27;84.40;99999.22;1085674;54;20042;-78
2021/09/27 00:11:13;;;;;;;18.77;16.17;;;;;;;17.28;84.33;100000.88;1085713;54;20090;-79
2021/09/27 00:12:15;;;;;;;16.40;14.55;;;;;;;17.39;84.23;99998.69;1086824;39;20559;-78
2021/09/27 00:13:21;;;;;;;17.23;13.75;;;;;;;17.37;83.92;100000.75;1085699;39;20377;-78
2021/09/27 00:14:22;;;;;;;18.23;13.98;;;;;;;17.34;84.00;99999.25;1086098;39;20461;-78
2021/09/27 00:15:31;;;;;;;17.30;15.48;;;;;;;17.41;83.84;99997.50;1085567;54;20038;-79
2021/09/27 00:16:36;;;;;;;16.73;14.48;;;;;;;17.42;83.82;100003.72;1085686;54;20038;-78
2021/09/27 00:17:38;;;;;;;17.38;14.50;;;;;;;17.36;84.15;99999.91;1089329;39;20264;-79
2021/09/27 00:18:44;;;;;;;17.05;14.73;;;;;;;17.41;83.85;99999.34;1085708;54;20034;-79
2021/09/27 00:19:46;;;;;;;17.02;14.75;;;;;;;17.38;84.07;99997.88;1085683;54;20043;-79
2021/09/27 00:20:54;;;;;;;20.15;14.93;;;;;;;17.43;83.83;100000.81;1085879;54;20038;-78
2021/09/27 00:21:55;;;;;;;15.60;13.45;;;;;;;17.48;83.97;100002.94;1085677;54;20038;-79
2021/09/27 00:23:00;;;;;;;16.02;12.98;;;;;;;17.56;83.51;100004.69;1085701;54;20045;-79
2021/09/27 00:24:07;;;;;;;15.02;13.07;;;;;;;17.55;83.36;100003.03;1085682;54;20045;-79
2021/09/27 00:25:10;;;;;;;15.48;12.75;;;;;;;17.59;83.39;100005.16;1085670;54;20041;-79
2021/09/27 00:26:15;;;;;;;15.95;12.15;;;;;;;17.62;83.08;100004.78;1085668;47;20666;-79
2021/09/27 00:27:16;;;;;;;15.60;12.93;;;;;;;17.66;83.17;100009.81;1085774;54;20042;-78
2021/09/27 00:28:21;;;;;;;15.48;13.35;;;;;;;17.64;83.10;100009.97;1085868;54;20034;-79
2021/09/27 00:29:22;;;;;;;15.65;13.68;;;;;;;17.65;83.30;100008.94;1085627;54;20046;-78
2021/09/27 00:30:27;;;;;;;17.80;14.82;;;;;;;17.64;83.33;100009.97;1085501;54;20042;-79
2021/09/27 00:31:28;;;;;;;18.05;16.13;;;;;;;17.58;83.22;100003.47;1085809;54;20061;-78
2021/09/27 00:32:33;;;;;;;19.02;16.25;;;;;;;17.55;83.35;100003.88;1085395;54;20066;-78
2021/09/27 00:33:35;;;;;;;17.55;15.40;;;;;;;17.53;83.29;100005.94;1085370;54;20034;-78
2021/09/27 00:34:42;;;;;;;19.52;17.33;;;;;;;17.49;83.49;100007.31;1085331;54;20045;-79
2021/09/27 00:35:46;;;;;;;18.98;16.17;;;;;;;17.47;83.56;100001.28;1085421;54;20049;-80
2021/09/27 00:36:48;;;;;;;17.67;15.77;;;;;;;17.46;83.30;100013.13;1085276;54;20045;-78
2021/09/27 00:37:52;;;;;;;19.27;17.20;;;;;;;17.43;83.32;99997.28;1085439;54;20042;-79
2021/09/27 00:38:54;;;;;;;17.58;15.05;;;;;;;17.44;83.39;100002.50;1085427;54;20042;-78
2021/09/27 00:39:58;;;;;;;17.13;14.43;;;;;;;17.46;83.37;100007.72;1085548;54;20038;-79
2021/09/27 00:41:02;;;;;;;16.65;14.27;;;;;;;17.43;83.24;100008.91;1085752;54;20049;-79
2021/09/27 00:42:06;;;;;;;14.80;12.63;;;;;;;17.47;83.31;100012.09;1085266;54;20049;-78
2021/09/27 00:43:09;;;;;;;15.00;12.80;;;;;;;17.48;83.11;100010.22;1085510;54;20664;-78
2021/09/27 00:44:13;;;;;;;14.23;12.52;;;;;;;17.49;83.27;100009.19;1084979;46;20058;-78
2021/09/27 00:45:19;;;;;;;13.20;10.85;;;;;;;17.53;83.37;100014.03;1085694;54;20039;-79
2021/09/27 00:46:28;;;;;;;14.75;12.32;;;;;;;17.53;83.03;100007.78;1085545;54;20041;-78
2021/09/27 00:47:30;;;;;;;14.88;13.15;;;;;;;17.52;83.26;100008.84;1085502;54;20038;-79
2021/09/27 00:48:34;;;;;;;15.02;12.00;;;;;;;17.54;82.87;100004.03;1085463;54;20576;-78
2021/09/27 00:49:39;;;;;;;17.38;12.75;;;;;;;17.50;82.99;100006.31;1085609;54;20038;-79
2021/09/27 00:50:47;;;;;;;15.70;13.07;;;;;;;17.53;82.88;100003.22;1085822;54;20043;-78
2021/09/27 00:51:51;;;;;;;16.50;13.68;;;;;;;17.52;82.94;100004.25;1085789;54;20034;-78
2021/09/27 00:52:54;;;;;;;15.52;13.40;;;;;;;17.49;83.11;100004.63;1085561;54;20034;-79
2021/09/27 00:54:02;;;;;;;15.77;12.32;;;;;;;17.52;83.15;100001.53;1085387;54;20141;-78
2021/09/27 00:55:06;;;;;;;16.15;12.60;;;;;;;17.51;83.19;99999.03;1085611;54;20031;-79
2021/09/27 00:56:11;;;;;;;15.60;13.15;;;;;;;17.50;83.25;99995.50;1085525;54;20061;-78
2021/09/27 00:57:17;;;;;;;14.45;12.70;;;;;;;17.49;83.13;99995.69;1085709;54;20819;-79
2021/09/27 00:58:23;;;;;;;15.63;11.80;;;;;;;17.50;83.03;99997.38;1085522;54;20045;-79
2021/09/27 00:59:26;;;;;;;14.77;12.00;;;;;;;17.51;83.03;99997.16;1086050;39;20493;-78
2021/09/27 01:00:30;;;;;;;16.92;14.15;;;;;;;17.50;82.90;99997.38;1085851;54;20049;-78
2021/09/27 01:01:32;;;;;;;15.55;13.07;;;;;;;17.48;82.73;99997.53;1085804;54;20042;-78
2021/09/27 01:02:37;;;;;;;14.60;12.73;;;;;;;17.48;82.65;99999.41;1085940;54;20038;-79
2021/09/27 01:03:39;;;;;;;14.63;13.10;;;;;;;17.48;82.57;99992.13;1086243;54;20106;-79
2021/09/27 01:04:46;;;;;;;16.10;13.30;;;;;;;17.45;82.75;99995.25;1085827;54;20034;-79
2021/09/27 01:05:56;;;;;;;15.65;12.88;;;;;;;17.48;82.64;99994.84;1085458;54;20039;-79
2021/09/27 01:07:07;;;;;;;;;;;;;;;17.31;83.24;99997.78;1086091;54;20094;-79
2021/09/27 01:08:22;;;;;;;14.20;12.55;;;;;;;17.37;83.07;99998.06;1085635;54;19950;-79
2021/09/27 01:09:37;;;;;;;15.40;12.38;;;;;;;17.42;83.10;100006.41;1085691;54;20038;-80
2021/09/27 01:11:09;;;;;;;13.00;11.40;;;;;;;17.42;82.77;100011.81;1085424;54;20047;-79
2021/09/27 01:12:24;;;;;;;12.38;10.75;;;;;;;17.43;82.76;100002.69;1085644;54;20042;-79
2021/09/27 01:13:44;;;;;;;13.40;10.57;;;;;;;17.47;82.65;100006.69;1086033;54;20061;-79
2021/09/27 01:14:56;;;;;;;14.37;11.13;;;;;;;17.46;82.74;100005.84;1086158;47;20046;-79
2021/09/27 01:16:10;;;;;;;12.35;10.10;;;;;;;17.51;82.90;100007.16;1086051;54;20038;-83
2021/09/27 01:17:23;;;;;;;15.52;11.70;;;;;;;17.48;83.09;100007.53;1087101;54;20034;-79
2021/09/27 01:18:40;;;;;;;15.10;12.27;;;;;;;17.46;83.09;100000.44;1088626;46;20130;-79
2021/09/27 01:20:19;;;;;;;14.10;12.10;;;;;;;17.46;83.28;100005.03;1086325;54;20038;-79
2021/09/27 01:21:36;;;;;;;14.75;12.10;;;;;;;17.43;82.90;100006.22;1085018;54;20049;-78
2021/09/27 01:22:52;;;;;;;14.20;12.38;;;;;;;17.44;82.81;100007.91;1085799;54;20050;-79
2021/09/27 01:24:29;;;;;;;14.85;12.55;;;;;;;17.38;82.99;100007.84;1085762;54;20038;-79
2021/09/27 01:26:10;;;;;;;15.10;12.75;;;;;;;17.36;83.21;100015.31;1085943;54;20046;-79
2021/09/27 01:27:40;;;;;;;16.35;12.38;;;;;;;17.34;83.45;100007.34;1085061;54;20043;-81
2021/09/27 01:29:04;;;;;;;17.08;13.20;;;;;;;17.29;83.84;100009.81;1085651;39;20680;-79
2021/09/27 01:30:28;;;;;;;16.33;13.05;;;;;;;17.26;83.56;100012.88;1085044;54;20167;-79
2021/09/27 01:32:12;;;;;;;16.17;12.95;;;;;;;17.25;83.63;100014.75;1085020;54;20569;-79
2021/09/27 01:33:21;;;;;;;15.00;11.73;;;;;;;17.30;83.42;100016.88;1084909;54;20038;-78
2021/09/27 01:34:35;;;;;;;14.18;12.55;;;;;;;17.30;83.37;100017.72;1084732;54;20031;-78
2021/09/27 01:35:47;;;;;;;13.07;11.38;;;;;;;17.36;83.26;100015.31;1085994;39;20795;-78
2021/09/27 01:36:57;;;;;;;13.75;11.57;;;;;;;17.40;83.32;100013.88;1085164;54;20038;-79
2021/09/27 01:38:09;;;;;;;14.32;12.02;;;;;;;17.39;83.24;100010.34;1085598;39;20623;-80
2021/09/27 01:39:19;;;;;;;13.48;10.85;;;;;;;17.44;83.02;100007.06;1084963;54;20035;-79
2021/09/27 01:40:26;;;;;;;15.55;12.00;;;;;;;17.40;82.66;100012.03;1085135;54;20042;-79
2021/09/27 01:41:36;;;;;;;14.43;12.57;;;;;;;17.44;82.81;100004.38;1085047;54;20035;-78
2021/09/27 01:42:43;;;;;;;12.25;10.93;;;;;;;17.42;83.13;100007.28;1085424;54;20069;-79
2021/09/27 01:43:56;;;;;;;13.60;11.48;;;;;;;17.46;82.89;100022.06;1085460;54;20042;-80
2021/09/27 01:45:06;;;;;;;11.73;10.48;;;;;;;17.46;83.00;100021.25;1084586;54;20035;-79
2021/09/27 01:46:19;;;;;;;14.90;12.07;;;;;;;17.45;82.76;100019.56;1085363;54;20045;-78
2021/09/27 01:47:33;;;;;;;12.57;10.32;;;;;;;17.47;82.93;100012.09;1085032;54;20078;-79
2021/09/27 01:48:45;;;;;;;13.48;11.57;;;;;;;17.44;82.80;100007.06;1085195;54;20063;-79
2021/09/27 01:49:58;;;;;;;15.77;12.93;;;;;;;17.38;83.10;100008.66;1086250;46;20042;-79
2021/09/27 01:51:06;;;;;;;15.63;13.38;;;;;;;17.37;82.73;100006.16;1085166;54;20042;-78
2021/09/27 01:52:18;;;;;;;15.65;13.07;;;;;;;17.35;82.67;100000.94;1085024;47;20714;-79
2021/09/27 01:53:23;;;;;;;12.57;10.93;;;;;;;17.39;82.63;99999.53;1084949;54;20038;-79
2021/09/27 01:54:33;;;;;;;15.15;12.38;;;;;;;17.38;82.49;100002.44;1084919;54;20034;-78
2021/09/27 01:55:41;;;;;;;15.15;13.50;;;;;;;17.32;82.54;100001.34;1085289;54;20072;-79
2021/09/27 01:56:57;;;;;;;16.25;13.65;;;;;;;17.30;83.01;99995.28;1084933;54;20620;-79
2021/09/27 01:58:04;;;;;;;17.35;13.90;;;;;;;17.31;82.69;99996.97;1085097;54;20042;-78
2021/09/27 01:59:17;;;;;;;14.75;11.88;;;;;;;17.34;82.88;100001.13;1085317;54;20042;-79
2021/09/27 02:00:22;;;;;;;14.23;12.43;;;;;;;17.37;82.93;100001.59;1085179;54;20047;-79
2021/09/27 02:01:34;;;;;;;14.30;12.15;;;;;;;17.38;83.00;100005.16;1085440;54;20565;-79
2021/09/27 02:02:49;;;;;;;13.43;12.02;;;;;;;17.38;82.74;100002.44;1085127;54;20039;-79
2021/09/27 02:03:55;;;;;;;15.85;12.82;;;;;;;17.38;83.01;100002.44;1085097;54;20053;-79
2021/09/27 02:05:06;;;;;;;15.75;13.10;;;;;;;17.35;82.92;100010.91;1085595;54;20038;-79
2021/09/27 02:06:14;;;;;;;17.55;14.60;;;;;;;17.30;82.91;100001.50;1085635;54;20042;-79
2021/09/27 02:07:22;;;;;;;16.25;13.75;;;;;;;17.27;83.26;99992.94;1085625;47;20065;-79
2021/09/27 02:08:29;;;;;;;18.02;15.60;;;;;;;17.21;83.04;99997.25;1085629;54;20049;-79
2021/09/27 02:09:38;;;;;;;17.65;15.48;;;;;;;17.23;82.87;99997.91;1085516;54;20061;-79
2021/09/27 02:10:44;;;;;;;17.90;15.20;;;;;;;17.22;83.12;99993.50;1085626;54;20046;-79
2021/09/27 02:11:54;;;;;;;20.70;15.43;;;;;;;17.22;83.07;99995.41;1085558;54;20050;-78
2021/09/27 02:13:08;;;;;;;15.73;13.07;;;;;;;17.24;83.26;99993.34;1085842;54;20038;-79
2021/09/27 02:14:14;;;;;;;15.48;12.82;;;;;;;17.25;83.24;99993.16;1085919;54;20065;-79
2021/09/27 02:15:24;;;;;;;14.93;12.35;;;;;;;17.29;83.30;99999.81;1085669;54;20041;-79
2021/09/27 02:16:34;;;;;;;13.55;11.93;;;;;;;17.31;83.27;99994.25;1085829;54;20030;-80
2021/09/27 02:17:46;;;;;;;12.82;10.55;;;;;;;17.31;83.15;100000.47;1085736;54;20058;-79
2021/09/27 02:18:53;;;;;;;13.68;11.48;;;;;;;17.35;83.04;100002.81;1085603;54;20040;-79
2021/09/27 02:20:01;;;;;;;13.20;10.32;;;;;;;17.40;83.12;100001.22;1086285;39;20849;-78
2021/09/27 02:21:08;;;;;;;15.80;12.32;;;;;;;17.39;83.31;99998.69;1085638;54;20073;-78
2021/09/27 02:22:19;;;;;;;13.93;11.57;;;;;;;17.40;82.94;100005.78;1085672;54;20042;-79
2021/09/27 02:23:26;;;;;;;12.88;11.18;;;;;;;17.42;83.30;100001.00;1085936;54;20069;-79
2021/09/27 02:24:37;;;;;;;17.38;12.70;;;;;;;17.36;83.57;100004.50;1085917;54;20061;-79
2021/09/27 02:25:42;;;;;;;16.08;13.05;;;;;;;17.36;83.65;100005.31;1085794;54;20928;-79
2021/09/27 02:26:48;;;;;;;16.13;13.25;;;;;;;17.38;83.26;100007.84;1086361;39;20589;-79
2021/09/27 02:27:51;;;;;;;13.90;12.38;;;;;;;17.43;83.36;100005.41;1086398;54;20042;-79
2021/09/27 02:28:56;;;;;;;16.33;13.32;;;;;;;17.47;83.08;100006.69;1086866;54;20026;-80
2021/09/27 02:29:58;;;;;;;13.05;11.32;;;;;;;17.51;83.00;100004.44;1086728;54;20089;-79
2021/09/27 02:31:09;;;;;;;15.90;11.88;;;;;;;17.50;82.81;100000.91;1086996;54;20081;-79
2021/09/27 02:32:19;;;;;;;13.82;11.70;;;;;;;17.49;83.15;99999.22;1086396;54;20045;-78
2021/09/27 02:33:35;;;;;;;17.52;12.95;;;;;;;17.50;83.13;99994.66;1086204;54;20011;-78
2021/09/27 02:34:46;;;;;;;13.82;12.15;;;;;;;17.50;82.84;99994.66;1087061;46;20022;-79
2021/09/27 02:35:55;;;;;;;14.93;12.07;;;;;;;17.50;83.13;100000.91;1085908;54;20054;-79
2021/09/27 02:37:08;;;;;;;15.00;11.65;;;;;;;17.53;82.48;100000.53;1086083;54;20043;-79
2021/09/27 02:38:17;;;;;;;13.52;11.27;;;;;;;17.53;82.97;100000.53;1086260;54;20053;-79
2021/09/27 02:39:28;;;;;;;16.63;14.73;;;;;;;17.49;82.90;99988.41;1085909;54;20723;-79
2021/09/27 02:40:32;;;;;;;;;;;;;;;17.32;83.52;99998.63;1086374;54;20065;-79
2021/09/27 02:41:45;;;;;;;16.10;12.43;;;;;;;17.33;83.56;99994.06;1086051;54;19973;-79
2021/09/27 02:42:49;;;;;;;15.98;13.07;;;;;;;17.36;83.26;99993.69;1087802;39;20785;-78
2021/09/27 02:43:54;;;;;;;16.27;12.75;;;;;;;17.39;83.05;100004.09;1086030;54;20027;-79
2021/09/27 02:44:55;;;;;;;15.38;12.05;;;;;;;17.41;83.35;99999.34;1086441;39;20540;-79
2021/09/27 02:46:00;;;;;;;14.30;12.35;;;;;;;17.39;83.15;100004.94;1085550;46;20037;-79
2021/09/27 02:47:04;;;;;;;14.27;12.70;;;;;;;17.42;83.27;100003.72;1086262;54;20043;-80
2021/09/27 02:48:15;;;;;;;15.52;12.90;;;;;;;17.39;83.24;99996.84;1086716;54;20428;-79
2021/09/27 02:49:24;;;;;;;16.48;12.13;;;;;;;17.39;82.96;100001.38;1086347;54;20061;-80
2021/09/27 02:50:34;;;;;;;13.23;11.27;;;;;;;17.39;83.16;100007.66;1086681;54;20549;-79
2021/09/27 02:51:37;;;;;;;14.95;13.23;;;;;;;17.35;83.67;100013.63;1086400;54;20038;-79
2021/09/27 02:52:44;;;;;;;14.50;12.45;;;;;;;17.34;83.90;100009.25;1086676;39;20457;-79
2021/09/27 02:53:46;;;;;;;14.18;12.02;;;;;;;17.41;83.66;100004.75;1086426;54;20034;-79
2021/09/27 02:54:54;;;;;;;14.55;12.73;;;;;;;17.40;83.38;100006.63;1087524;54;20042;-79
2021/09/27 02:56:18;;;;;;;15.70;13.27;;;;;;;17.37;83.58;100008.88;1086510;54;20038;-79
2021/09/27 02:57:38;;;;;;;16.02;14.18;;;;;;;17.28;84.02;100008.13;1086298;54;20442;-79
2021/09/27 02:58:47;;;;;;;15.40;12.75;;;;;;;17.31;83.89;100007.75;1087906;46;20644;-79
2021/09/27 03:00:03;;;;;;;16.40;13.98;;;;;;;17.29;84.12;100009.81;1087370;54;20107;-78
2021/09/27 03:01:16;;;;;;;15.77;12.82;;;;;;;17.31;83.89;99999.66;1088253;46;20344;-78
2021/09/27 03:02:26;;;;;;;16.35;13.82;;;;;;;17.34;83.87;100007.34;1087513;54;20047;-80
2021/09/27 03:03:43;;;;;;;13.75;11.73;;;;;;;17.33;83.96;100004.88;1087846;46;20042;-80
2021/09/27 03:04:57;;;;;;;13.50;11.63;;;;;;;17.35;83.85;100006.34;1086544;54;20046;-79
2021/09/27 03:06:15;;;;;;;14.60;12.48;;;;;;;17.35;83.68;100009.03;1086529;54;20137;-79
2021/09/27 03:07:26;;;;;;;15.77;11.55;;;;;;;17.37;83.79;100000.75;1086652;46;20110;-79
2021/09/27 03:08:46;;;;;;;14.98;12.43;;;;;;;17.38;83.74;100002.44;1086493;54;20061;-79
2021/09/27 03:10:21;;;;;;;13.53;11.33;;;;;;;17.35;84.07;99994.72;1086597;54;20041;-79
2021/09/27 03:12:01;;;;;;;13.52;10.90;;;;;;;17.36;83.99;100001.78;1086332;54;20042;-78
2021/09/27 03:13:13;;;;;;;11.77;10.50;;;;;;;17.39;84.27;100004.94;1085708;54;20034;-79
2021/09/27 03:14:35;;;;;;;14.50;11.80;;;;;;;17.39;83.89;99999.53;1085599;54;20042;-79
2021/09/27 03:16:04;;;;;;;13.80;12.25;;;;;;;17.38;83.78;99997.03;1085643;54;20034;-79
2021/09/27 03:17:15;;;;;;;15.60;11.77;;;;;;;17.41;84.07;99997.50;1086971;39;20654;-79
2021/09/27 03:18:33;;;;;;;14.30;12.13;;;;;;;17.42;83.56;99998.31;1086525;46;20045;-79
2021/09/27 03:19:50;;;;;;;14.77;12.30;;;;;;;17.42;83.53;99990.22;1086360;54;20042;-80
2021/09/27 03:21:10;;;;;;;14.18;11.50;;;;;;;17.43;83.88;99997.28;1087214;39;20390;-79
2021/09/27 03:22:23;;;;;;;16.47;11.10;;;;;;;17.41;83.93;99996.63;1086751;39;20532;-79
2021/09/27 03:23:38;;;;;;;17.63;12.88;;;;;;;17.35;83.96;99998.22;1086177;54;20034;-80
2021/09/27 03:24:53;;;;;;;15.05;12.73;;;;;;;17.29;84.29;99997.13;1086465;54;20084;-79
2021/09/27 03:26:09;;;;;;;16.42;12.85;;;;;;;17.33;84.31;100000.31;1086400;54;20039;-78
2021/09/27 03:27:22;;;;;;;16.60;14.15;;;;;;;17.26;84.53;100000.22;1086249;54;20039;-79
2021/09/27 03:28:34;;;;;;;18.63;15.98;;;;;;;17.18;84.87;100002.19;1086472;54;20030;-80
2021/09/27 03:29:46;;;;;;;19.33;16.58;;;;;;;17.08;85.04;100000.63;1086773;54;20035;-80
2021/09/27 03:31:03;;;;;;;23.02;17.23;;;;;;;17.05;84.83;99997.47;1086598;54;20060;-80
2021/09/27 03:32:18;;;;;;;22.17;16.52;;;;;;;17.07;84.91;99996.25;1087807;39;20594;-79
2021/09/27 03:33:34;;;;;;;19.55;15.68;;;;;;;17.06;84.84;99999.16;1085879;54;20069;-79
2021/09/27 03:34:43;;;;;;;21.20;16.15;;;;;;;16.90;85.08;100000.16;1087170;39;20692;-78
2021/09/27 03:36:07;;;;;;;24.17;18.08;;;;;;;16.84;85.64;99996.34;1085655;54;20039;-78
2021/09/27 03:37:43;;;;;;;20.58;17.45;;;;;;;16.85;85.59;99992.59;1085616;54;20066;-79
2021/09/27 03:38:51;;;;;;;20.05;16.88;;;;;;;16.93;85.22;99992.53;1084993;54;20062;-79
2021/09/27 03:40:10;;;;;;;19.23;15.57;;;;;;;16.96;85.04;99994.00;1085052;54;20058;-79
2021/09/27 03:41:22;;;;;;;17.50;15.45;;;;;;;17.04;84.87;99998.50;1084996;54;20038;-79
2021/09/27 03:42:34;;;;;;;16.55;13.73;;;;;;;17.04;84.85;99995.78;1084637;54;20038;-79
2021/09/27 03:43:50;;;;;;;16.52;14.55;;;;;;;17.03;84.79;100004.91;1085278;54;20038;-78
2021/09/27 03:44:59;;;;;;;18.08;15.05;;;;;;;16.97;84.80;100001.09;1085640;54;20062;-79
2021/09/27 03:46:13;;;;;;;19.48;15.75;;;;;;;16.98;84.94;99997.38;1085689;54;20050;-78
2021/09/27 03:47:26;;;;;;;16.55;14.73;;;;;;;17.02;84.62;100003.22;1087535;39;20825;-79
2021/09/27 03:48:38;;;;;;;16.92;13.57;;;;;;;17.08;84.35;100003.31;1086332;54;20050;-79
2021/09/27 03:49:49;;;;;;;17.15;13.82;;;;;;;17.11;84.42;99997.56;1086247;54;20114;-78
2021/09/27 03:50:56;;;;;;;17.55;15.48;;;;;;;17.05;84.59;100008.28;1087314;39;20725;-79
2021/09/27 03:52:08;;;;;;;19.92;16.45;;;;;;;16.96;84.82;100012.91;1086465;54;20061;-79
2021/09/27 03:53:14;;;;;;;19.65;16.80;;;;;;;16.92;84.87;100008.91;1086467;54;20042;-79
2021/09/27 03:54:24;;;;;;;18.65;15.02;;;;;;;17.05;84.83;100003.69;1086248;54;20085;-81
2021/09/27 03:55:32;;;;;;;20.58;14.80;;;;;;;17.12;84.45;100006.47;1085938;54;20881;-79
2021/09/27 03:56:42;;;;;;;18.20;15.00;;;;;;;17.05;84.21;100008.28;1085904;54;20038;-78
2021/09/27 03:57:49;;;;;;;18.15;15.77;;;;;;;16.93;84.71;100003.34;1086288;54;20696;-79
2021/09/27 03:58:59;;;;;;;24.67;18.58;;;;;;;16.87;84.82;100009.47;1086242;54;20061;-79
2021/09/27 04:00:08;;;;;;;23.17;18.80;;;;;;;16.80;84.95;100012.06;1086107;54;20041;-78
2021/09/27 04:01:15;;;;;;;20.38;17.25;;;;;;;16.88;84.72;100000.34;1086357;54;20094;-79
2021/09/27 04:02:30;;;;;;;21.27;16.13;;;;;;;16.87;84.48;100003.22;1086546;54;20026;-79
2021/09/27 04:03:43;;;;;;;19.58;16.05;;;;;;;16.87;84.63;100001.38;1086924;54;20035;-79
2021/09/27 04:05:02;;;;;;;19.92;16.33;;;;;;;16.86;84.23;100009.66;1086489;54;20069;-79
2021/09/27 04:06:18;;;;;;;21.70;16.98;;;;;;;16.80;85.14;100011.25;1086374;54;20045;-79
2021/09/27 04:07:32;;;;;;;18.75;16.65;;;;;;;16.80;84.73;100016.63;1086624;54;20049;-79
2021/09/27 04:08:44;;;;;;;20.75;17.73;;;;;;;16.83;84.81;100010.84;1086433;54;20098;-79
2021/09/27 04:09:56;;;;;;;20.17;16.33;;;;;;;16.85;84.41;100008.81;1086565;54;20042;-79
2021/09/27 04:11:16;;;;;;;20.63;16.42;;;;;;;16.89;84.25;100002.03;1086435;54;20046;-79
2021/09/27 04:12:34;;;;;;;17.98;14.93;;;;;;;16.95;84.07;99997.78;1086563;54;20045;-79
2021/09/27 04:13:44;;;;;;;16.02;13.93;;;;;;;17.00;83.85;100001.56;1086521;54;20043;-79
2021/09/27 04:14:54;;;;;;;18.83;15.50;;;;;;;16.95;84.29;99993.19;1086759;54;20046;-79
2021/09/27 04:16:09;;;;;;;20.42;14.95;;;;;;;16.87;84.20;99993.25;1087624;54;20094;-78
2021/09/27 04:17:21;;;;;;;18.95;16.83;;;;;;;16.84;84.49;99991.78;1088223;46;20042;-80
2021/09/27 04:18:37;;;;;;;18.02;15.93;;;;;;;16.83;84.44;99994.66;1087710;54;20030;-80
2021/09/27 04:19:50;;;;;;;18.10;14.95;;;;;;;16.90;84.04;99990.19;1086916;54;20038;-79
2021/09/27 04:21:07;;;;;;;18.67;15.65;;;;;;;16.90;83.82;99986.66;1085874;54;20039;-78
2021/09/27 04:22:14;;;;;;;17.02;14.82;;;;;;;16.93;83.77;99986.28;1086182;54;20046;-78
2021/09/27 04:23:33;;;;;;;16.42;14.48;;;;;;;16.94;83.69;99988.81;1088162;31;20659;-79
2021/09/27 04:25:00;;;;;;;16.30;13.07;;;;;;;16.98;83.69;99986.56;1086241;54;20046;-79
2021/09/27 04:26:10;;;;;;;20.02;16.27;;;;;;;16.81;84.38;99997.53;1086492;54;20038;-79
2021/09/27 04:27:34;;;;;;;20.88;16.30;;;;;;;16.81;84.31;99991.31;1086383;54;20088;-79
2021/09/27 04:29:02;;;;;;;17.33;14.43;;;;;;;16.86;84.21;99983.50;1086465;54;20038;-79
2021/09/27 04:30:37;;;;;;;14.80;13.00;;;;;;;16.88;84.05;99988.69;1088669;31;20642;-79
2021/09/27 04:31:49;;;;;;;15.50;12.80;;;;;;;16.94;83.67;99991.50;1086209;54;20042;-79
2021/09/27 04:33:14;;;;;;;15.52;13.23;;;;;;;16.95;83.64;99993.19;1088736;39;20558;-79
2021/09/27 04:34:44;;;;;;;16.25;12.88;;;;;;;16.94;83.38;99982.59;1085937;54;20039;-78
2021/09/27 04:35:52;;;;;;;17.63;13.15;;;;;;;16.92;83.63;99981.91;1086332;54;20038;-79
2021/09/27 04:36:59;;;;;;;19.50;14.55;;;;;;;16.94;83.71;99990.69;1086114;54;20098;-78
2021/09/27 04:38:03;;;;;;;17.13;13.98;;;;;;;16.93;83.81;99984.44;1086554;39;20585;-77
2021/09/27 04:39:15;;;;;;;16.60;13.48;;;;;;;16.95;83.52;99985.09;1086454;54;20042;-78
2021/09/27 04:40:21;;;;;;;15.45;13.05;;;;;;;16.96;83.55;99984.06;1086430;54;20031;-78
2021/09/27 04:41:40;;;;;;;17.65;14.57;;;;;;;16.91;83.31;99983.75;1086307;54;20061;-79
2021/09/27 04:43:17;;;;;;;19.83;14.95;;;;;;;16.81;83.68;99981.34;1086398;54;20065;-79
2021/09/27 04:44:31;;;;;;;21.02;15.57;;;;;;;16.79;83.75;99978.00;1085458;54;20042;-77
2021/09/27 04:45:54;;;;;;;18.50;15.35;;;;;;;16.78;83.63;99978.19;1085858;54;21208;-78
2021/09/27 04:47:06;;;;;;;19.50;15.68;;;;;;;16.76;83.67;99982.94;1086167;46;20750;-80
2021/09/27 04:48:21;;;;;;;19.52;15.27;;;;;;;16.74;83.85;99990.38;1086405;54;20662;-78
2021/09/27 04:49:42;;;;;;;16.25;13.65;;;;;;;16.75;83.82;99994.75;1086408;54;20046;-77
2021/09/27 04:50:55;;;;;;;17.88;13.90;;;;;;;16.75;83.69;99995.59;1086373;54;20106;-78
2021/09/27 04:52:08;;;;;;;16.23;13.23;;;;;;;16.75;83.86;99997.44;1086506;54;20042;-78
2021/09/27 04:53:24;;;;;;;17.45;14.45;;;;;;;16.75;83.92;99992.06;1086496;54;20633;-78
2021/09/27 04:55:01;;;;;;;18.95;14.43;;;;;;;16.67;83.98;99998.41;1086513;54;20107;-78
2021/09/27 04:56:19;;;;;;;19.80;16.42;;;;;;;16.63;83.73;99995.22;1086370;54;20046;-78
2021/09/27 04:57:28;;;;;;;20.45;16.35;;;;;;;16.61;84.16;99991.88;1086138;54;20038;-78
2021/09/27 04:58:55;;;;;;;18.92;15.23;;;;;;;16.59;84.25;99984.97;1086341;54;20648;-77
2021/09/27 05:00:10;;;;;;;16.60;14.30;;;;;;;16.62;83.92;99984.63;1086366;54;20050;-78
2021/09/27 05:01:27;;;;;;;16.75;14.45;;;;;;;16.64;84.21;99990.66;1087249;39;20457;-78
2021/09/27 05:02:48;;;;;;;17.98;14.35;;;;;;;16.64;84.13;99993.38;1086305;54;20045;-77
2021/09/27 05:04:01;;;;;;;16.85;13.20;;;;;;;16.65;83.69;100003.97;1086290;54;20613;-78
2021/09/27 05:05:10;;;;;;;16.85;13.70;;;;;;;16.66;83.75;99992.16;1086280;54;20030;-78
2021/09/27 05:06:36;;;;;;;16.60;13.77;;;;;;;16.67;83.88;99990.31;1087976;39;20530;-78
2021/09/27 05:07:59;;;;;;;15.27;12.90;;;;;;;16.65;83.58;99995.88;1086494;54;20061;-78
2021/09/27 05:09:06;;;;;;;14.43;12.02;;;;;;;16.69;83.54;99997.19;1086473;54;20042;-78
2021/09/27 05:10:43;;;;;;;13.93;12.00;;;;;;;16.68;83.49;99992.81;1086472;54;20038;-77
2021/09/27 05:12:15;;;;;;;13.75;11.40;;;;;;;16.68;83.81;99992.81;1086634;46;20039;-77
2021/09/27 05:13:36;;;;;;;16.17;12.23;;;;;;;16.69;83.80;100002.59;1086226;54;20065;-78
2021/09/27 05:14:47;;;;;;;;;;;;;;;16.58;83.86;99999.53;1087012;54;20046;-79
2021/09/27 05:16:05;;;;;;;13.93;11.32;;;;;;;16.62;83.80;99998.97;1086611;54;20516;-78
2021/09/27 05:17:27;;;;;;;14.55;12.43;;;;;;;16.65;83.62;99998.56;1086348;54;20042;-78
2021/09/27 05:18:56;;;;;;;15.95;12.98;;;;;;;16.65;83.89;100003.97;1086506;54;20046;-78
2021/09/27 05:20:44;;;;;;;14.63;12.18;;;;;;;16.63;83.91;99995.22;1086214;54;20042;-78
2021/09/27 05:22:18;;;;;;;13.63;10.90;;;;;;;16.62;83.97;100004.34;1085962;39;20899;-78
2021/09/27 05:23:32;;;;;;;13.55;10.25;;;;;;;16.64;83.99;99996.06;1085479;54;20049;-78
2021/09/27 05:25:01;;;;;;;15.23;12.43;;;;;;;16.60;84.04;100002.84;1085734;54;20046;-79
2021/09/27 05:26:34;;;;;;;16.92;12.90;;;;;;;16.52;84.26;100009.19;1085496;54;20069;-78
2021/09/27 05:27:57;;;;;;;16.00;13.05;;;;;;;16.52;84.10;100011.88;1085464;54;20069;-78
2021/09/27 05:29:17;;;;;;;18.88;14.80;;;;;;;16.48;84.18;100007.88;1085853;54;20038;-78
2021/09/27 05:30:36;;;;;;;20.17;16.33;;;;;;;16.38;84.46;100022.47;1085650;54;20046;-78
2021/09/27 05:31:58;;;;;;;25.50;18.20;;;;;;;16.33;84.86;100011.41;1085633;54;20042;-78